sensor_id;sensor_type;location;lat;lon;timestamp;pressure;altitude;pressure_sealevel;temperature;humidity
34506;BME280;20748;42.632;23.198;2022-12-29T00:02:18;92811.22;;;4.05;100.00
34506;BME280;20748;42.632;23.198;2022-12-29T00:04:50;92805.91;;;4.12;100.00
34506;BME280;20748;42.632;23.198;2022-12-29T00:07:23;92811.31;;;4.10;100.00
34506;BME280;20748;42.632;23.198;2022-12-29T00:09:56;92810.28;;;4.11;100.00
34506;BME280;20748;42.632;23.198;2022-12-29T00:12:28;92803.56;;;4.10;100.00
34506;BME280;20748;42.632;23.198;2022-12-29T00:15:20;92810.53;;;3.93;100.00
34506;BME280;20748;42.632;23.198;2022-12-29T00:18:11;92812.59;;;3.91;100.00
34506;BME280;20748;42.632;23.198;2022-12-29T00:20:43;92814.06;;;3.86;100.00
34506;BME280;20748;42.632;23.198;2022-12-29T00:23:33;92822.56;;;3.87;100.00
34506;BME280;20748;42.632;23.198;2022-12-29T00:26:24;92821.09;;;3.74;100.00
34506;BME280;20748;42.632;23.198;2022-12-29T00:29:14;92823.22;;;3.77;100.00
34506;BME280;20748;42.632;23.198;2022-12-29T00:32:07;92829.94;;;3.78;100.00
34506;BME280;20748;42.632;23.198;2022-12-29T00:35:07;92820.25;;;3.85;100.00
34506;BME280;20748;42.632;23.198;2022-12-29T00:37:43;92821.00;;;3.86;100.00
34506;BME280;20748;42.632;23.198;2022-12-29T00:40:34;92823.69;;;3.91;100.00
34506;BME280;20748;42.632;23.198;2022-12-29T00:43:26;92831.03;;;3.82;100.00
34506;BME280;20748;42.632;23.198;2022-12-29T00:46:17;92833.84;;;3.81;100.00
34506;BME280;20748;42.632;23.198;2022-12-29T00:48:51;92835.97;;;3.84;100.00
34506;BME280;20748;42.632;23.198;2022-12-29T00:51:42;92835.81;;;3.73;100.00
34506;BME280;20748;42.632;23.198;2022-12-29T00:54:15;92839.41;;;3.72;100.00
34506;BME280;20748;42.632;23.198;2022-12-29T00:56:50;92829.78;;;3.68;100.00
34506;BME280;20748;42.632;23.198;2022-12-29T00:59:24;92836.81;;;3.72;100.00
34506;BME280;20748;42.632;23.198;2022-12-29T01:01:57;92838.94;;;3.75;100.00
34506;BME280;20748;42.632;23.198;2022-12-29T01:04:30;92842.38;;;3.81;100.00
34506;BME280;20748;42.632;23.198;2022-12-29T01:07:02;92838.25;;;3.80;100.00
34506;BME280;20748;42.632;23.198;2022-12-29T01:09:35;92831.13;;;3.87;100.00
34506;BME280;20748;42.632;23.198;2022-12-29T01:12:33;92827.81;;;3.92;100.00
34506;BME280;20748;42.632;23.198;2022-12-29T01:15:16;92827.13;;;3.97;100.00
34506;BME280;20748;42.632;23.198;2022-12-29T01:17:49;92825.41;;;4.02;100.00
34506;BME280;20748;42.632;23.198;2022-12-29T01:20:22;92832.91;;;4.04;100.00
34506;BME280;20748;42.632;23.198;2022-12-29T01:22:54;92824.94;;;4.06;100.00
34506;BME280;20748;42.632;23.198;2022-12-29T01:25:27;92819.06;;;4.10;100.00
34506;BME280;20748;42.632;23.198;2022-12-29T01:27:59;92812.84;;;4.11;100.00
34506;BME280;20748;42.632;23.198;2022-12-29T01:30:33;92813.28;;;4.03;100.00
34506;BME280;20748;42.632;23.198;2022-12-29T01:33:05;92817.72;;;4.08;100.00
34506;BME280;20748;42.632;23.198;2022-12-29T01:35:38;92813.41;;;4.13;100.00
34506;BME280;20748;42.632;23.198;2022-12-29T01:38:11;92807.94;;;4.10;100.00
34506;BME280;20748;42.632;23.198;2022-12-29T01:40:44;92804.38;;;4.16;100.00
34506;BME280;20748;42.632;23.198;2022-12-29T01:43:17;92803.94;;;4.19;100.00
34506;BME280;20748;42.632;23.198;2022-12-29T01:45:53;92805.72;;;4.19;100.00
34506;BME280;20748;42.632;23.198;2022-12-29T01:48:26;92800.31;;;4.20;100.00
34506;BME280;20748;42.632;23.198;2022-12-29T01:50:58;92800.38;;;4.25;100.00
34506;BME280;20748;42.632;23.198;2022-12-29T01:53:32;92801.94;;;4.26;100.00
34506;BME280;20748;42.632;23.198;2022-12-29T01:56:07;92797.28;;;4.23;100.00
34506;BME280;20748;42.632;23.198;2022-12-29T01:58:45;92793.38;;;4.21;100.00
34506;BME280;20748;42.632;23.198;2022-12-29T02:01:20;92790.00;;;4.20;100.00
34506;BME280;20748;42.632;23.198;2022-12-29T02:03:53;92790.47;;;4.17;100.00
34506;BME280;20748;42.632;23.198;2022-12-29T02:06:29;92789.69;;;4.16;100.00
34506;BME280;20748;42.632;23.198;2022-12-29T02:09:04;92784.53;;;4.16;100.00
34506;BME280;20748;42.632;23.198;2022-12-29T02:11:37;92777.56;;;4.17;100.00
34506;BME280;20748;42.632;23.198;2022-12-29T02:14:12;92779.13;;;4.18;100.00
34506;BME280;20748;42.632;23.198;2022-12-29T02:16:56;92780.63;;;4.14;100.00
34506;BME280;20748;42.632;23.198;2022-12-29T02:22:42;92775.44;;;4.14;100.00
34506;BME280;20748;42.632;23.198;2022-12-29T02:25:43;92777.25;;;4.13;100.00
34506;BME280;20748;42.632;23.198;2022-12-29T02:31:41;92773.28;;;4.06;100.00
34506;BME280;20748;42.632;23.198;2022-12-29T02:34:24;92773.13;;;3.95;100.00
34506;BME280;20748;42.632;23.198;2022-12-29T02:37:03;92782.59;;;4.07;100.00
34506;BME280;20748;42.632;23.198;2022-12-29T02:39:40;92782.50;;;4.01;100.00
34506;BME280;20748;42.632;23.198;2022-12-29T02:42:24;92780.16;;;4.00;100.00
34506;BME280;20748;42.632;23.198;2022-12-29T02:45:22;92782.38;;;3.91;100.00
34506;BME280;20748;42.632;23.198;2022-12-29T02:48:04;92780.72;;;3.85;100.00
34506;BME280;20748;42.632;23.198;2022-12-29T02:50:43;92790.13;;;3.74;100.00
34506;BME280;20748;42.632;23.198;2022-12-29T02:53:20;92783.88;;;3.70;100.00
34506;BME280;20748;42.632;23.198;2022-12-29T02:56:13;92780.59;;;3.57;100.00
34506;BME280;20748;42.632;23.198;2022-12-29T02:58:46;92778.88;;;3.46;100.00
34506;BME280;20748;42.632;23.198;2022-12-29T03:01:29;92773.41;;;3.42;100.00
34506;BME280;20748;42.632;23.198;2022-12-29T03:04:23;92771.03;;;3.41;100.00
34506;BME280;20748;42.632;23.198;2022-12-29T03:07:09;92767.69;;;3.40;100.00
34506;BME280;20748;42.632;23.198;2022-12-29T03:09:52;92759.72;;;3.42;100.00
34506;BME280;20748;42.632;23.198;2022-12-29T03:12:30;92757.38;;;3.40;100.00
34506;BME280;20748;42.632;23.198;2022-12-29T03:15:23;92755.56;;;3.41;100.00
34506;BME280;20748;42.632;23.198;2022-12-29T03:18:21;92757.22;;;3.47;100.00
34506;BME280;20748;42.632;23.198;2022-12-29T03:21:01;92754.41;;;3.48;100.00
34506;BME280;20748;42.632;23.198;2022-12-29T03:23:35;92751.13;;;3.36;100.00
34506;BME280;20748;42.632;23.198;2022-12-29T03:26:11;92754.78;;;3.23;100.00
34506;BME280;20748;42.632;23.198;2022-12-29T03:28:52;92756.41;;;3.29;100.00
34506;BME280;20748;42.632;23.198;2022-12-29T03:31:28;92757.44;;;3.28;100.00
34506;BME280;20748;42.632;23.198;2022-12-29T03:34:03;92764.16;;;3.29;100.00
34506;BME280;20748;42.632;23.198;2022-12-29T03:36:42;92760.91;;;3.34;100.00
34506;BME280;20748;42.632;23.198;2022-12-29T03:39:18;92760.72;;;3.24;100.00
34506;BME280;20748;42.632;23.198;2022-12-29T03:41:57;92768.91;;;3.20;100.00
34506;BME280;20748;42.632;23.198;2022-12-29T03:44:33;92758.16;;;3.24;100.00
34506;BME280;20748;42.632;23.198;2022-12-29T03:47:06;92764.38;;;3.28;100.00
34506;BME280;20748;42.632;23.198;2022-12-29T03:49:39;92768.78;;;3.27;100.00
34506;BME280;20748;42.632;23.198;2022-12-29T03:52:13;92768.56;;;3.29;100.00
34506;BME280;20748;42.632;23.198;2022-12-29T03:54:48;92767.75;;;3.28;100.00
34506;BME280;20748;42.632;23.198;2022-12-29T03:57:21;92770.81;;;3.25;100.00
34506;BME280;20748;42.632;23.198;2022-12-29T04:00:01;92774.38;;;3.24;100.00
34506;BME280;20748;42.632;23.198;2022-12-29T04:02:35;92774.25;;;3.14;100.00
34506;BME280;20748;42.632;23.198;2022-12-29T04:05:08;92785.88;;;3.16;100.00
34506;BME280;20748;42.632;23.198;2022-12-29T04:07:41;92777.59;;;3.14;100.00
34506;BME280;20748;42.632;23.198;2022-12-29T04:10:13;92779.16;;;3.15;100.00
34506;BME280;20748;42.632;23.198;2022-12-29T04:12:46;92782.53;;;3.16;100.00
34506;BME280;20748;42.632;23.198;2022-12-29T04:15:19;92774.31;;;3.19;100.00
34506;BME280;20748;42.632;23.198;2022-12-29T04:17:51;92779.06;;;3.10;100.00
34506;BME280;20748;42.632;23.198;2022-12-29T04:20:23;92784.16;;;3.05;100.00
34506;BME280;20748;42.632;23.198;2022-12-29T04:23:17;92782.53;;;3.16;100.00
34506;BME280;20748;42.632;23.198;2022-12-29T04:25:50;92784.16;;;3.22;100.00
34506;BME280;20748;42.632;23.198;2022-12-29T04:28:22;92776.97;;;3.24;100.00
34506;BME280;20748;42.632;23.198;2022-12-29T04:31:18;92787.38;;;3.29;100.00
34506;BME280;20748;42.632;23.198;2022-12-29T04:33:51;92779.19;;;3.32;100.00
34506;BME280;20748;42.632;23.198;2022-12-29T04:36:24;92781.19;;;3.30;100.00
34506;BME280;20748;42.632;23.198;2022-12-29T04:39:02;92779.63;;;3.29;100.00
34506;BME280;20748;42.632;23.198;2022-12-29T04:41:37;92790.75;;;3.30;100.00
34506;BME280;20748;42.632;23.198;2022-12-29T04:44:12;92799.25;;;3.30;100.00
34506;BME280;20748;42.632;23.198;2022-12-29T04:46:45;92795.75;;;3.36;100.00
34506;BME280;20748;42.632;23.198;2022-12-29T04:49:36;92794.50;;;3.39;100.00
34506;BME280;20748;42.632;23.198;2022-12-29T04:52:39;92802.72;;;3.36;100.00
34506;BME280;20748;42.632;23.198;2022-12-29T04:55:15;92811.78;;;3.39;100.00
34506;BME280;20748;42.632;23.198;2022-12-29T04:57:50;92815.59;;;3.36;100.00
34506;BME280;20748;42.632;23.198;2022-12-29T05:00:24;92808.63;;;3.36;100.00
34506;BME280;20748;42.632;23.198;2022-12-29T05:02:57;92810.91;;;3.33;100.00
34506;BME280;20748;42.632;23.198;2022-12-29T05:05:30;92806.06;;;3.36;100.00
34506;BME280;20748;42.632;23.198;2022-12-29T05:08:04;92813.47;;;3.33;100.00
34506;BME280;20748;42.632;23.198;2022-12-29T05:10:37;92810.13;;;3.32;100.00
34506;BME280;20748;42.632;23.198;2022-12-29T05:13:15;92808.81;;;3.30;100.00
34506;BME280;20748;42.632;23.198;2022-12-29T05:15:50;92792.69;;;3.22;100.00
34506;BME280;20748;42.632;23.198;2022-12-29T05:18:23;92811.06;;;3.43;100.00
34506;BME280;20748;42.632;23.198;2022-12-29T05:20:55;92812.41;;;3.46;100.00
34506;BME280;20748;42.632;23.198;2022-12-29T05:23:28;92816.47;;;3.42;100.00
34506;BME280;20748;42.632;23.198;2022-12-29T05:26:06;92817.66;;;3.34;100.00
34506;BME280;20748;42.632;23.198;2022-12-29T05:29:08;92812.53;;;3.22;100.00
34506;BME280;20748;42.632;23.198;2022-12-29T05:31:41;92816.22;;;3.26;100.00
34506;BME280;20748;42.632;23.198;2022-12-29T05:34:14;92810.19;;;3.20;100.00
34506;BME280;20748;42.632;23.198;2022-12-29T05:36:47;92816.88;;;3.04;100.00
34506;BME280;20748;42.632;23.198;2022-12-29T05:39:20;92813.91;;;3.13;100.00
34506;BME280;20748;42.632;23.198;2022-12-29T05:41:59;92810.50;;;3.24;100.00
34506;BME280;20748;42.632;23.198;2022-12-29T05:44:41;92810.41;;;3.19;100.00
34506;BME280;20748;42.632;23.198;2022-12-29T05:47:28;92810.28;;;3.26;100.00
34506;BME280;20748;42.632;23.198;2022-12-29T05:50:15;92818.72;;;3.21;100.00
34506;BME280;20748;42.632;23.198;2022-12-29T05:53:27;92820.97;;;3.17;100.00
34506;BME280;20748;42.632;23.198;2022-12-29T05:56:01;92818.00;;;3.26;100.00
34506;BME280;20748;42.632;23.198;2022-12-29T05:58:34;92824.38;;;3.06;100.00
34506;BME280;20748;42.632;23.198;2022-12-29T06:01:07;92828.03;;;3.10;100.00
34506;BME280;20748;42.632;23.198;2022-12-29T06:03:40;92830.63;;;3.10;100.00
34506;BME280;20748;42.632;23.198;2022-12-29T06:06:19;92834.28;;;2.97;100.00
34506;BME280;20748;42.632;23.198;2022-12-29T06:08:52;92832.34;;;3.04;100.00
34506;BME280;20748;42.632;23.198;2022-12-29T06:11:25;92832.72;;;2.96;100.00
34506;BME280;20748;42.632;23.198;2022-12-29T06:14:02;92835.47;;;3.06;100.00
34506;BME280;20748;42.632;23.198;2022-12-29T06:16:34;92832.78;;;3.01;100.00
34506;BME280;20748;42.632;23.198;2022-12-29T06:19:10;92831.31;;;3.05;100.00
34506;BME280;20748;42.632;23.198;2022-12-29T06:21:42;92830.56;;;3.05;100.00
34506;BME280;20748;42.632;23.198;2022-12-29T06:24:15;92839.69;;;3.13;100.00
34506;BME280;20748;42.632;23.198;2022-12-29T06:26:47;92841.84;;;3.16;100.00
34506;BME280;20748;42.632;23.198;2022-12-29T06:29:21;92835.44;;;3.18;100.00
34506;BME280;20748;42.632;23.198;2022-12-29T06:31:53;92833.56;;;3.14;100.00
34506;BME280;20748;42.632;23.198;2022-12-29T06:34:30;92838.56;;;3.20;100.00
34506;BME280;20748;42.632;23.198;2022-12-29T06:37:02;92844.94;;;3.18;100.00
34506;BME280;20748;42.632;23.198;2022-12-29T06:39:35;92837.81;;;3.08;100.00
34506;BME280;20748;42.632;23.198;2022-12-29T06:42:14;92847.44;;;3.13;100.00
34506;BME280;20748;42.632;23.198;2022-12-29T06:45:06;92847.09;;;3.21;100.00
34506;BME280;20748;42.632;23.198;2022-12-29T06:47:39;92852.78;;;3.23;100.00
34506;BME280;20748;42.632;23.198;2022-12-29T06:50:11;92850.53;;;3.27;100.00
34506;BME280;20748;42.632;23.198;2022-12-29T06:52:44;92851.31;;;3.27;100.00
34506;BME280;20748;42.632;23.198;2022-12-29T06:55:17;92863.66;;;3.25;100.00
34506;BME280;20748;42.632;23.198;2022-12-29T06:57:49;92864.84;;;3.34;100.00
34506;BME280;20748;42.632;23.198;2022-12-29T07:00:22;92863.28;;;3.33;100.00
34506;BME280;20748;42.632;23.198;2022-12-29T07:02:55;92864.94;;;3.40;100.00
34506;BME280;20748;42.632;23.198;2022-12-29T07:05:29;92854.81;;;3.50;100.00
34506;BME280;20748;42.632;23.198;2022-12-29T07:08:03;92863.16;;;3.57;100.00
34506;BME280;20748;42.632;23.198;2022-12-29T07:10:35;92859.34;;;3.60;100.00
34506;BME280;20748;42.632;23.198;2022-12-29T07:13:08;92863.97;;;3.58;100.00
34506;BME280;20748;42.632;23.198;2022-12-29T07:15:41;92865.03;;;3.62;100.00
34506;BME280;20748;42.632;23.198;2022-12-29T07:18:13;92861.78;;;3.67;100.00
34506;BME280;20748;42.632;23.198;2022-12-29T07:20:46;92856.38;;;3.68;100.00
34506;BME280;20748;42.632;23.198;2022-12-29T07:23:18;92864.69;;;3.70;100.00
34506;BME280;20748;42.632;23.198;2022-12-29T07:25:58;92853.66;;;3.75;100.00
34506;BME280;20748;42.632;23.198;2022-12-29T07:28:32;92857.88;;;3.81;100.00
34506;BME280;20748;42.632;23.198;2022-12-29T07:31:06;92860.75;;;3.85;100.00
34506;BME280;20748;42.632;23.198;2022-12-29T07:33:38;92861.38;;;3.75;100.00
34506;BME280;20748;42.632;23.198;2022-12-29T07:36:11;92840.97;;;3.73;100.00
34506;BME280;20748;42.632;23.198;2022-12-29T07:38:43;92860.38;;;3.93;100.00
34506;BME280;20748;42.632;23.198;2022-12-29T07:41:16;92854.50;;;3.98;100.00
34506;BME280;20748;42.632;23.198;2022-12-29T07:43:48;92856.69;;;4.06;100.00
34506;BME280;20748;42.632;23.198;2022-12-29T07:46:39;92851.16;;;4.14;100.00
34506;BME280;20748;42.632;23.198;2022-12-29T07:49:29;92849.41;;;4.20;100.00
34506;BME280;20748;42.632;23.198;2022-12-29T07:52:01;92855.47;;;4.31;100.00
34506;BME280;20748;42.632;23.198;2022-12-29T07:54:34;92849.69;;;4.41;100.00
34506;BME280;20748;42.632;23.198;2022-12-29T07:57:06;92857.31;;;4.53;100.00
34506;BME280;20748;42.632;23.198;2022-12-29T07:59:38;92855.66;;;4.64;100.00
34506;BME280;20748;42.632;23.198;2022-12-29T08:02:11;92853.75;;;4.76;100.00
34506;BME280;20748;42.632;23.198;2022-12-29T08:04:44;92862.16;;;4.89;100.00
34506;BME280;20748;42.632;23.198;2022-12-29T08:07:16;92857.66;;;5.01;100.00
34506;BME280;20748;42.632;23.198;2022-12-29T08:09:49;92861.72;;;4.97;100.00
34506;BME280;20748;42.632;23.198;2022-12-29T08:12:21;92869.38;;;5.09;100.00
34506;BME280;20748;42.632;23.198;2022-12-29T08:14:54;92855.22;;;5.17;100.00
34506;BME280;20748;42.632;23.198;2022-12-29T08:17:27;92857.56;;;5.18;100.00
34506;BME280;20748;42.632;23.198;2022-12-29T08:20:00;92851.25;;;5.31;100.00
34506;BME280;20748;42.632;23.198;2022-12-29T08:22:32;92859.19;;;5.24;100.00
34506;BME280;20748;42.632;23.198;2022-12-29T08:25:05;92854.22;;;5.45;100.00
34506;BME280;20748;42.632;23.198;2022-12-29T08:27:38;92854.84;;;5.58;100.00
34506;BME280;20748;42.632;23.198;2022-12-29T08:30:11;92857.16;;;5.54;100.00
34506;BME280;20748;42.632;23.198;2022-12-29T08:32:45;92857.78;;;5.67;100.00
34506;BME280;20748;42.632;23.198;2022-12-29T08:35:17;92862.44;;;5.70;100.00
34506;BME280;20748;42.632;23.198;2022-12-29T08:37:49;92865.00;;;5.64;100.00
34506;BME280;20748;42.632;23.198;2022-12-29T08:40:22;92868.50;;;5.81;100.00
34506;BME280;20748;42.632;23.198;2022-12-29T08:42:55;92874.53;;;5.91;100.00
34506;BME280;20748;42.632;23.198;2022-12-29T08:45:27;92864.34;;;6.07;100.00
34506;BME280;20748;42.632;23.198;2022-12-29T08:48:00;92864.63;;;6.11;100.00
34506;BME280;20748;42.632;23.198;2022-12-29T08:50:33;92862.72;;;6.01;100.00
34506;BME280;20748;42.632;23.198;2022-12-29T08:53:05;92863.13;;;6.20;100.00
34506;BME280;20748;42.632;23.198;2022-12-29T08:55:38;92866.38;;;6.43;100.00
34506;BME280;20748;42.632;23.198;2022-12-29T08:58:10;92863.06;;;6.48;100.00
34506;BME280;20748;42.632;23.198;2022-12-29T09:00:47;92858.91;;;6.52;100.00
34506;BME280;20748;42.632;23.198;2022-12-29T09:03:21;92843.59;;;6.45;100.00
34506;BME280;20748;42.632;23.198;2022-12-29T09:06:14;92858.59;;;6.43;100.00
34506;BME280;20748;42.632;23.198;2022-12-29T09:08:47;92855.75;;;6.44;100.00
34506;BME280;20748;42.632;23.198;2022-12-29T09:11:21;92851.75;;;6.69;100.00
34506;BME280;20748;42.632;23.198;2022-12-29T09:13:54;92858.28;;;6.82;100.00
34506;BME280;20748;42.632;23.198;2022-12-29T09:16:27;92857.06;;;7.01;100.00
34506;BME280;20748;42.632;23.198;2022-12-29T09:19:00;92858.94;;;7.16;100.00
34506;BME280;20748;42.632;23.198;2022-12-29T09:21:32;92858.66;;;7.12;100.00
34506;BME280;20748;42.632;23.198;2022-12-29T09:24:05;92858.09;;;7.05;100.00
34506;BME280;20748;42.632;23.198;2022-12-29T09:26:37;92854.28;;;7.23;100.00
34506;BME280;20748;42.632;23.198;2022-12-29T09:29:18;92859.75;;;7.27;100.00
34506;BME280;20748;42.632;23.198;2022-12-29T09:31:50;92855.09;;;7.39;100.00
34506;BME280;20748;42.632;23.198;2022-12-29T09:34:23;92852.00;;;7.52;100.00
34506;BME280;20748;42.632;23.198;2022-12-29T09:36:56;92847.34;;;7.55;100.00
34506;BME280;20748;42.632;23.198;2022-12-29T09:39:28;92843.19;;;7.69;100.00
34506;BME280;20748;42.632;23.198;2022-12-29T09:42:05;92840.34;;;7.81;100.00
34506;BME280;20748;42.632;23.198;2022-12-29T09:44:48;92840.88;;;7.83;100.00
34506;BME280;20748;42.632;23.198;2022-12-29T09:47:25;92840.34;;;7.81;98.70
34506;BME280;20748;42.632;23.198;2022-12-29T09:50:02;92835.94;;;7.92;99.68
34506;BME280;20748;42.632;23.198;2022-12-29T09:52:40;92833.34;;;7.97;97.96
34506;BME280;20748;42.632;23.198;2022-12-29T09:55:17;92835.94;;;7.92;97.34
34506;BME280;20748;42.632;23.198;2022-12-29T09:57:55;92821.66;;;8.00;97.74
34506;BME280;20748;42.632;23.198;2022-12-29T10:00:37;92823.69;;;8.08;97.95
34506;BME280;20748;42.632;23.198;2022-12-29T10:03:15;92830.75;;;8.13;96.96
34506;BME280;20748;42.632;23.198;2022-12-29T10:05:52;92826.81;;;8.20;96.63
34506;BME280;20748;42.632;23.198;2022-12-29T10:08:32;92827.06;;;8.24;97.16
34506;BME280;20748;42.632;23.198;2022-12-29T10:11:13;92815.09;;;8.28;95.49
34506;BME280;20748;42.632;23.198;2022-12-29T10:14:04;92816.13;;;8.32;95.88
34506;BME280;20748;42.632;23.198;2022-12-29T10:16:52;92817.41;;;8.56;94.03
34506;BME280;20748;42.632;23.198;2022-12-29T10:19:38;92806.22;;;8.66;92.12
34506;BME280;20748;42.632;23.198;2022-12-29T10:22:28;92810.38;;;8.62;92.81
34506;BME280;20748;42.632;23.198;2022-12-29T10:25:11;92812.16;;;8.71;92.07
34506;BME280;20748;42.632;23.198;2022-12-29T10:27:47;92804.59;;;8.75;91.14
34506;BME280;20748;42.632;23.198;2022-12-29T10:30:20;92811.59;;;8.80;89.78
34506;BME280;20748;42.632;23.198;2022-12-29T10:32:55;92799.09;;;8.87;90.23
34506;BME280;20748;42.632;23.198;2022-12-29T10:35:32;92801.19;;;8.85;89.61
34506;BME280;20748;42.632;23.198;2022-12-29T10:38:15;92796.41;;;9.03;88.99
34506;BME280;20748;42.632;23.198;2022-12-29T10:40:53;92789.28;;;9.19;86.11
34506;BME280;20748;42.632;23.198;2022-12-29T10:43:28;92780.47;;;9.20;84.44
34506;BME280;20748;42.632;23.198;2022-12-29T10:46:03;92791.00;;;9.39;84.44
34506;BME280;20748;42.632;23.198;2022-12-29T10:48:37;92791.25;;;9.43;83.88
34506;BME280;20748;42.632;23.198;2022-12-29T10:51:09;92797.66;;;9.56;81.58
34506;BME280;20748;42.632;23.198;2022-12-29T10:53:45;92794.63;;;9.78;81.11
34506;BME280;20748;42.632;23.198;2022-12-29T10:56:28;92797.72;;;9.85;80.05
34506;BME280;20748;42.632;23.198;2022-12-29T10:59:07;92787.38;;;10.04;79.76
34506;BME280;20748;42.632;23.198;2022-12-29T11:01:52;92778.47;;;10.11;77.52
34506;BME280;20748;42.632;23.198;2022-12-29T11:04:45;92777.56;;;10.26;77.63
34506;BME280;20748;42.632;23.198;2022-12-29T11:07:20;92779.00;;;10.37;75.48
34506;BME280;20748;42.632;23.198;2022-12-29T11:10:17;92774.63;;;10.03;76.14
34506;BME280;20748;42.632;23.198;2022-12-29T11:12:56;92783.34;;;10.17;76.53
34506;BME280;20748;42.632;23.198;2022-12-29T11:15:38;92772.66;;;10.19;76.85
34506;BME280;20748;42.632;23.198;2022-12-29T11:18:23;92767.72;;;9.88;77.26
34506;BME280;20748;42.632;23.198;2022-12-29T11:20:58;92771.88;;;9.89;76.94
34506;BME280;20748;42.632;23.198;2022-12-29T11:23:34;92762.81;;;9.81;78.24
34506;BME280;20748;42.632;23.198;2022-12-29T11:26:19;92765.66;;;9.85;77.87
34506;BME280;20748;42.632;23.198;2022-12-29T11:29:16;92769.78;;;9.91;77.64
34506;BME280;20748;42.632;23.198;2022-12-29T11:31:51;92767.38;;;9.94;78.46
34506;BME280;20748;42.632;23.198;2022-12-29T11:34:26;92758.66;;;9.80;78.56
34506;BME280;20748;42.632;23.198;2022-12-29T11:37:04;92755.00;;;9.81;78.44
34506;BME280;20748;42.632;23.198;2022-12-29T11:39:41;92754.69;;;9.88;79.19
34506;BME280;20748;42.632;23.198;2022-12-29T11:42:19;92753.88;;;9.92;78.08
34506;BME280;20748;42.632;23.198;2022-12-29T11:44:54;92752.53;;;9.95;77.68
34506;BME280;20748;42.632;23.198;2022-12-29T11:47:29;92751.75;;;9.94;78.66
34506;BME280;20748;42.632;23.198;2022-12-29T11:50:05;92745.22;;;9.97;77.97
34506;BME280;20748;42.632;23.198;2022-12-29T11:52:39;92750.16;;;9.99;77.73
34506;BME280;20748;42.632;23.198;2022-12-29T11:55:18;92754.34;;;9.94;76.18
34506;BME280;20748;42.632;23.198;2022-12-29T11:57:52;92748.84;;;10.01;76.56
34506;BME280;20748;42.632;23.198;2022-12-29T12:00:28;92749.00;;;10.10;75.28
34506;BME280;20748;42.632;23.198;2022-12-29T12:03:05;92743.94;;;9.94;74.15
34506;BME280;20748;42.632;23.198;2022-12-29T12:05:45;92736.84;;;10.00;75.89
34506;BME280;20748;42.632;23.198;2022-12-29T12:08:31;92744.50;;;10.16;74.50
34506;BME280;20748;42.632;23.198;2022-12-29T12:11:10;92737.69;;;10.20;75.19
34506;BME280;20748;42.632;23.198;2022-12-29T12:13:51;92738.81;;;10.14;73.80
34506;BME280;20748;42.632;23.198;2022-12-29T12:16:29;92739.91;;;10.07;73.10
34506;BME280;20748;42.632;23.198;2022-12-29T12:19:09;92743.00;;;10.10;72.96
34506;BME280;20748;42.632;23.198;2022-12-29T12:21:50;92737.91;;;9.99;73.88
34506;BME280;20748;42.632;23.198;2022-12-29T12:24:36;92729.31;;;9.99;72.46
34506;BME280;20748;42.632;23.198;2022-12-29T12:27:15;92730.66;;;10.20;71.98
34506;BME280;20748;42.632;23.198;2022-12-29T12:29:52;92725.38;;;10.26;72.18
34506;BME280;20748;42.632;23.198;2022-12-29T12:32:35;92727.25;;;10.20;71.32
34506;BME280;20748;42.632;23.198;2022-12-29T12:35:18;92729.03;;;10.25;71.36
34506;BME280;20748;42.632;23.198;2022-12-29T12:38:06;92736.38;;;10.23;71.61
34506;BME280;20748;42.632;23.198;2022-12-29T12:40:59;92733.22;;;9.96;71.36
34506;BME280;20748;42.632;23.198;2022-12-29T12:43:41;92727.00;;;9.92;71.68
34506;BME280;20748;42.632;23.198;2022-12-29T12:46:39;92719.16;;;9.97;72.17
34506;BME280;20748;42.632;23.198;2022-12-29T12:49:49;92714.66;;;10.03;72.13
34506;BME280;20748;42.632;23.198;2022-12-29T12:52:40;92719.84;;;10.08;70.81
34506;BME280;20748;42.632;23.198;2022-12-29T12:55:30;92714.44;;;9.99;71.33
34506;BME280;20748;42.632;23.198;2022-12-29T12:58:13;92721.34;;;10.14;71.86
34506;BME280;20748;42.632;23.198;2022-12-29T13:01:04;92720.00;;;10.17;72.60
34506;BME280;20748;42.632;23.198;2022-12-29T13:03:54;92717.06;;;10.24;72.37
34506;BME280;20748;42.632;23.198;2022-12-29T13:06:40;92716.59;;;10.16;71.78
34506;BME280;20748;42.632;23.198;2022-12-29T13:09:26;92709.75;;;10.26;72.04
34506;BME280;20748;42.632;23.198;2022-12-29T13:12:09;92714.38;;;10.29;72.04
34506;BME280;20748;42.632;23.198;2022-12-29T13:14:55;92715.13;;;10.34;72.16
34506;BME280;20748;42.632;23.198;2022-12-29T13:17:37;92711.47;;;10.36;72.02
34506;BME280;20748;42.632;23.198;2022-12-29T13:20:20;92711.28;;;10.27;72.46
34506;BME280;20748;42.632;23.198;2022-12-29T13:23:00;92718.09;;;10.23;71.87
34506;BME280;20748;42.632;23.198;2022-12-29T13:25:39;92723.06;;;10.24;72.11
34506;BME280;20748;42.632;23.198;2022-12-29T13:28:22;92725.44;;;10.20;70.50
34506;BME280;20748;42.632;23.198;2022-12-29T13:31:01;92719.66;;;10.24;70.96
34506;BME280;20748;42.632;23.198;2022-12-29T13:33:43;92728.72;;;10.31;70.37
34506;BME280;20748;42.632;23.198;2022-12-29T13:36:23;92725.25;;;10.36;69.77
34506;BME280;20748;42.632;23.198;2022-12-29T13:39:02;92733.31;;;10.15;68.13
34506;BME280;20748;42.632;23.198;2022-12-29T13:41:40;92738.97;;;10.23;68.68
34506;BME280;20748;42.632;23.198;2022-12-29T13:44:17;92724.88;;;10.24;68.56
34506;BME280;20748;42.632;23.198;2022-12-29T13:46:54;92727.31;;;10.15;68.66
34506;BME280;20748;42.632;23.198;2022-12-29T13:49:29;92727.22;;;10.25;69.09
34506;BME280;20748;42.632;23.198;2022-12-29T13:52:11;92738.94;;;9.98;67.90
34506;BME280;20748;42.632;23.198;2022-12-29T13:54:56;92733.59;;;10.14;66.14
34506;BME280;20748;42.632;23.198;2022-12-29T13:57:39;92731.63;;;10.00;69.47